LFMK

Carcassonne Airport

Airport
ICAO code
LFMK
IATA Code
CCF
Summary
ICAO Region
EUR
ICAO Territory
Location

, Languedoc-Roussillon

Serving
Carcassonne
Elevation
433 ft
Coordinates
43° 12' 58" N , 2° 18' 23" E
Metar
LFMK 150200Z AUTO 27008KT 230V290 9999 FEW022 BKN028 BKN068 15/13 Q1015

Runways

Designator Length Width Surface Rops
10/28 2050 45 ASP Yes/Yes

Airport map

Aerial View

SKYbrary Partners:

Safety knowledge contributed by: